Tiempo atmosférico en la estación meteorológica de Melilla, Melilla (47 m.)



Fecha
DESCASC
Temp. máxima en grados centígrados (hora)
DESCASC
Temp. mínima en grados centígrados (hora)
DESCASC
Temp. media en grados centígrados
DESCASC
Racha de viento máxima en m/sg (hora)
DESCASC
Velocidad máxima media en intervalos de 10 minutos(hora)
DESCASC
Precipitaciones diarias en mm
DESCASC
Precipitaciones de 00:00 a 06:00 en mm
DESCASC
Precipitaciones de 06:00 a 12:00 en mm
DESCASC
Precipitaciones de 12:00 a 18:00 en mm
DESCASC
Precipitaciones de 18:00 a 24:00 en mm
DESCASC
18-08-2019 30.3 (18:50) 24 (01:40) 27.1 10.28 (15:10) 4.44 (13:20) 0 0 0 0 0
17-08-2019 28.6 (16:50) 22.7 (08:00) 25.7 6.11 (11:50) 4.17 (13:10) 0 0 0 0 0
16-08-2019 29.2 (15:10) 22.8 (07:20) 26 6.67 (15:20) 4.17 (14:50) 0 0 0 0 0
15-08-2019 28.7 (16:00) 23.7 (00:00) 26.2 7.5 (16:30) 5.28 (16:00) 0 0 0 0 0
14-08-2019 29 (14:50) 24.7 (00:00) 26.9 8.33 (13:10) 5.83 (13:30) 0 0 0 0 0
13-08-2019 29.3 (12:20) 20.3 (00:00) 24.8 7.5 (14:40) 5.28 (16:00) 0 0 0 0 0
12-08-2019 32.2 (14:10) 24.7 (00:00) 28.5 13.06 (01:40) 7.78 (02:20) 0 0 0 0 0
11-08-2019 32.6 (14:40) 26.4 (00:00) 29.5 14.72 (19:20) 8.89 (18:40) 0 0 0 0 0
10-08-2019 32.6 (15:00) 25.6 (00:00) 29.1 13.89 (04:00) 8.61 (04:00) 0 0 0 0 0
09-08-2019 33.7 (13:10) 26.1 (00:00) 29.9 11.94 (18:30) 6.67 (21:40) 0 0 0 0 0
08-08-2019 34.9 (17:40) 26.4 (00:00) 30.7 12.22 (06:20) 6.39 (05:30) 0 0 0 0 0
07-08-2019 34.4 (16:30) 27.7 (00:00) 31.1 11.11 (17:50) 5.83 (21:00) 0 0 0 0 0
06-08-2019 33.6 (18:00) 25 (00:00) 29.3 12.78 (18:30) 5.56 (20:10) 0 0 0 0 0
05-08-2019 30.1 (17:10) 24.7 (00:00) 27.4 6.11 (17:40) 4.44 (17:30) 0 0 0 0 0
04-08-2019 29.3 (11:30) 23.6 (00:00) 26.4 6.94 (15:30) 5 (17:20) 0 0 0 0 0
03-08-2019 28.6 (15:30) 24.3 (00:00) 26.4 6.11 (13:40) 4.44 (17:00) 0 0 0 0 0
02-08-2019 30.7 (14:10) 23.2 (00:00) 27 9.44 (17:20) 6.67 (16:20) 0 0 0 0 0
01-08-2019 27.6 (17:10) 24.1 (00:00) 25.9 8.06 (02:30) 5 (04:10) 0.2 0.2 0 0 0
31-07-2019 28.6 (14:00) 24.2 (00:00) 26.4 10.56 (14:40) 7.5 (14:40) 0 0 0 0 0
30-07-2019 33.7 (16:10) 23 (00:00) 28.4 6.67 (16:10) 3.89 (16:50) 0 0 0 0 0
29-07-2019 29.5 (18:20) 21.1 (00:00) 25.3 8.33 (17:00) 4.44 (15:50) 0 0 0 0 0
28-07-2019 28.2 (14:40) 22.3 (00:00) 25.3 12.22 (02:10) 6.67 (02:10) 0 0 0 0 0
27-07-2019 28.2 (16:10) 23.1 (00:00) 25.7 15.56 (20:10) 8.33 (22:20) 0 0 0 0 0
26-07-2019 31.1 (13:20) 23.2 (00:00) 27.2 15.28 (16:30) 7.78 (17:00) 0 0 0 0 0
25-07-2019 29.3 (17:40) 24.2 (00:00) 26.8 6.39 (16:40) 4.17 (18:30) 0 0 0 0 0
24-07-2019 28.5 (15:40) 24.1 (00:00) 26.3 7.22 (17:30) 5.28 (12:30) 0 0 0 0 0
23-07-2019 28.4 (13:30) 24.7 (00:00) 26.6 10.28 (00:50) 6.39 (00:50) 0 0 0 0 0
22-07-2019 27.9 (15:20) 24.6 (00:00) 26.3 7.5 (19:40) 5.56 (12:00) 0 0 0 0 0
21-07-2019 28.8 (13:10) 24.7 (00:00) 26.8 8.33 (15:20) 6.11 (15:20) 0 0 0 0 0

Gráficas

Temp. máximas Temp. mínimas Temp. medias Precipitaciones Rachas de viento máximas Velocidades máximas media en intervalos de 10 minutos

Datos horarios

Fecha y hora oficial Temperatura (ºC) Velocidad del viento (km/h) Dirección del viento Racha (km/h) Dirección de racha Precipitación (mm) Presión (hPa) Tendencia (hPa) Humedad (%)
2019-08-19 23:00:00 27.6 6 Sudeste 18 Oeste 0 1007.9 1.7 64
2019-08-19 22:00:00 28.6 10 Oeste 23 Oeste 0 1007.2 1.2 43
2019-08-19 21:00:00 29 15 Oeste 28 Oeste 0 1006.6 0.5 41
2019-08-19 20:00:00 30.1 10 Oeste 29 Oeste 0 1006.2 -0.3 38
2019-08-19 19:00:00 32.6 14 Oeste 29 Oeste 0 1006 -0.9 31
2019-08-19 18:00:00 33.4 12 Oeste 30 Oeste 0 1006.1 -1.3 30
2019-08-19 17:00:00 33.2 12 Oeste 31 Oeste 0 1006.5 -1.1 31
2019-08-19 16:00:00 33.3 13 Oeste 32 Oeste 0 1006.9 -1.1 31
2019-08-19 15:00:00 33.1 10 Oeste 27 Noroeste 0 1007.4 -0.7 31
2019-08-19 14:00:00 32.7 9 Noroeste 27 Oeste 0 1007.6 -0.3 32
2019-08-19 13:00:00 33.2 11 Oeste 28 Noroeste 0 1008 0.4 29
2019-08-19 12:00:00 31.9 15 Noroeste 26 Noroeste 0 1008.1 0.6 28
2019-08-19 11:00:00 31.8 10 Noroeste 20 Noroeste 0 1007.9 0.7 32
2019-08-19 10:00:00 30.3 12 Oeste 25 Oeste 0 1007.6 0.7 32
2019-08-19 09:00:00 28.8 13 Oeste 24 Oeste 0 1007.5 0.8 39
2019-08-19 08:00:00 27.4 11 Oeste 31 Sudoeste 0 1007.2 0.6 39
2019-08-19 07:00:00 28.1 16 Oeste 26 Oeste 0 1006.9 0.1 36
2019-08-19 06:00:00 27.7 14 Oeste 22 Oeste 0 1006.7 -0.7 35
2019-08-19 05:00:00 25.6 6 Norte 18 Oeste 0 1006.6 -1.3 45
2019-08-19 04:00:00 24.9 6 Oeste 12 Oeste 0 1006.8 -1.1 48
2019-08-19 03:00:00 25.8 2 Oeste 10 Norte 0 1007.4 -0.6 57
2019-08-19 02:00:00 27 6 Este 19 Sudoeste 0 1007.9 0.4 59
2019-08-19 01:00:00 27.7 5 Noroeste 17 Sur 0 1007.9 1 42
2019-08-19 00:00:00 27.9 6 Sudoeste 16 Sudoeste 0 1008 1.7 39
2019-08-18 23:00:00 27.8 8 Oeste 21 Oeste 0 1007.5 1.6 40
2019-08-18 22:00:00 28 6 Oeste 17 Oeste 0 1006.9 0.7 38
2019-08-18 21:00:00 28.5 10 Sudoeste 23 Oeste 0 1006.3 -0.1 38
2019-08-18 20:00:00 29.5 7 Oeste 24 Oeste 0 1005.9 -0.7 35
2019-08-18 19:00:00 30.1 8 Oeste 27 Oeste 0 1006.2 -0.5 36
2019-08-18 18:00:00 29.4 10 Oeste 31 Oeste 0 1006.4 -0.8 45
2019-08-18 17:00:00 29.7 13 Oeste 33 Oeste 0 1006.6 -0.9 50
2019-08-18 16:00:00 29 14 Noroeste 37 Oeste 0 1006.7 -1 63
2019-08-18 15:00:00 29.3 12 Oeste 30 Noroeste 0 1007.2 -0.7 63
2019-08-18 14:00:00 28.5 12 Noroeste 30 Noroeste 0 1007.5 0.2 66
2019-08-18 13:00:00 28.3 13 Noroeste 27 Noroeste 0 1007.7 0.9 67
2019-08-18 12:00:00 28.3 13 Noroeste 25 Noroeste 0 1007.9 1.4 66
2019-08-18 11:00:00 27.8 4 Norte 12 Noroeste 0 1007.3 1.4 70
2019-08-18 10:00:00 26.4 5 Noroeste 14 Noroeste 0 1006.8 1 75
2019-08-18 09:00:00 25.3 5 Oeste 13 Oeste 0 1006.5 0.9 79
2019-08-18 08:00:00 24.4 5 Oeste 10 Oeste 0 1005.9 0.3 83
2019-08-18 07:00:00 24.7 3 Oeste 12 Oeste 0 1005.8 -0.3 83
2019-08-18 06:00:00 24.8 2 Noroeste 9 Este 0 1005.6 -0.7 86
2019-08-18 05:00:00 25 6 Este 10 Este 0 1005.6 -1.2 86
2019-08-18 04:00:00 24.8 5 Este 10 Este 0 1006.1 -1.2 86
2019-08-18 03:00:00 24.5 5 Norte 6 Norte 0 1006.3 -0.8 87
2019-08-18 02:00:00 24.1 3 Oeste 9 Norte 0 1006.8 -0.1 87
2019-08-18 01:00:00 24.6 3 Noroeste 8 Norte 0 1007.3 0.5 85
2019-08-18 00:00:00 24.7 2 Noroeste 9 Oeste 0 1007.1 0.8 85
2019-08-17 23:00:00 24.8 5 Noroeste 11 Noroeste 0 1006.9 0.9 85
2019-08-17 22:00:00 25.3 6 Noroeste 13 Noroeste 0 1006.8 0.6 83
2019-08-17 21:00:00 26.7 4 Noroeste 14 Nordeste 0 1006.3 -0.2 75
2019-08-17 20:00:00 27.1 8 Nordeste 14 Nordeste 0 1006 -1.1 74
2019-08-17 19:00:00 28.1 8 Nordeste 16 Nordeste 0 1006.2 -1.5 68
2019-08-17 18:00:00 28.5 9 Este 18 Este 0 1006.5 -1.9 69
2019-08-17 17:00:00 28.4 10 Este 19 Este 0 1007.1 -1.6 69
2019-08-17 16:00:00 28.4 13 Este 19 Nordeste 0 1007.7 -1.4 69
2019-08-17 15:00:00 27.7 14 Este 21 Este 0 1008.4 -1 71
2019-08-17 14:00:00 27.5 14 Este 21 Este 0 1008.7 -0.6 73
2019-08-17 13:00:00 28 14 Este 20 Este 0 1009.1 -0.2 70
2019-08-17 12:00:00 27.3 14 Nordeste 22 Nordeste 0 1009.4 0.4 73
2019-08-17 11:00:00 26.8 14 Este 20 Este 0 1009.3 0.4 74
2019-08-17 10:00:00 25.8 12 Este 17 Este 0 1009.3 0.6 79
2019-08-17 09:00:00 25 6 Este 10 Este 0 1009 0.3 83
2019-08-17 08:00:00 22.8 2 Este 5 Este 0 1008.9 0 86
2019-08-17 07:00:00 23 3 Norte 5 Sudoeste 0 1008.7 -0.5 88
2019-08-17 06:00:00 23.2 3 Noroeste 6 Noroeste 0 1008.7 -0.9 88
2019-08-17 05:00:00 23.6 2 Este 5 Norte 0 1008.9 -1.3 87
2019-08-17 04:00:00 23.8 3 Sudoeste 6 Sudoeste 0 1009.2 -1.1 86
2019-08-17 03:00:00 24 2 Noroeste 6 Norte 0 1009.6 -0.5 86
2019-08-17 02:00:00 24.3 5 Sudoeste 7 Sudoeste 0 1010.2 0.1 83
2019-08-17 01:00:00 24.5 5 Oeste 8 Sudoeste 0 1010.3 0.7 84
2019-08-17 00:00:00 24.6 4 Noroeste 10 Norte 0 1010.1 0.9 86
2019-08-16 23:00:00 25.3 6 Noroeste 9 Norte 0 1010.1 1.2 83
2019-08-16 22:00:00 25.7 5 Noroeste 11 Norte 0 1009.6 0.6 82
2019-08-16 21:00:00 26.2 5 Nordeste 12 Este 0 1009.2 -0.2 78
2019-08-16 20:00:00 26.5 8 Nordeste 12 Nordeste 0 1008.9 -0.7 77
2019-08-16 19:00:00 27.7 9 Este 17 Este 0 1009 -1.2 71
2019-08-16 18:00:00 28 9 Nordeste 21 Nordeste 0 1009.4 -1.1 70
2019-08-16 17:00:00 28.4 10 Nordeste 20 Este 0 1009.6 -1.1 65
2019-08-16 16:00:00 28.7 13 Nordeste 24 Nordeste 0 1010.2 -0.9 67
2019-08-16 15:00:00 28.8 13 Nordeste 22 Nordeste 0 1010.5 -0.6 68
2019-08-16 14:00:00 27.8 13 Nordeste 23 Nordeste 0 1010.7 -0.4 70
2019-08-16 13:00:00 27.9 13 Norte 19 Norte 0 1011.1 0.4 69
2019-08-16 12:00:00 28.3 11 Este 18 Este 0 1011.1 0.3 66
2019-08-16 11:00:00 27.7 8 Este 14 Este 0 1011.1 0.5 72
2019-08-16 10:00:00 26.8 8 Este 14 Este 0 1010.7 0.7 76
2019-08-16 09:00:00 24.2 3 Nordeste 7 Noroeste 0 1010.8 0.7 85
2019-08-16 08:00:00 23.1 2 Sudoeste 7 Sudoeste 0 1010.6 0.3 89
2019-08-16 07:00:00 22.9 2 Noroeste 9 Sudoeste 0 1010 -0.3 88
2019-08-16 06:00:00 23.1 4 Oeste 6 Sudoeste 0 1010.1 -0.4 86
2019-08-16 05:00:00 23.4 3 Sur 6 Sudoeste 0 1010.3 -0.4 87
2019-08-16 04:00:00 23.1 3 Oeste 6 Noroeste 0 1010.3 -0.3 87
2019-08-16 03:00:00 23.4 4 Norte 8 Norte 0 1010.5 -0.2 87
2019-08-16 02:00:00 24 5 Noroeste 10 Norte 0 1010.7 -0.1 86
2019-08-16 01:00:00 24.4 6 Noroeste 11 Noroeste 0 1010.6 0.4 85
2019-08-16 00:00:00 24.7 4 Oeste 9 Oeste 0 1010.7 0.9 83
2019-08-15 23:00:00 24.8 5 Noroeste 12 Noroeste 0 1010.8 1.2 83
2019-08-15 22:00:00 25.2 6 Noroeste 14 Noroeste 0 1010.2 0.6 82
2019-08-15 21:00:00 26.5 5 Oeste 13 Oeste 0 1009.8 0.1 77
2019-08-15 20:00:00 27.7 9 Nordeste 14 Nordeste 0 1009.6 -0.4 61
2019-08-15 19:00:00 27.9 8 Nordeste 17 Norte 0 1009.6 -0.6 67
2019-08-15 18:00:00 28.3 9 Nordeste 21 Norte 0 1009.7 -0.7 70
2019-08-15 17:00:00 28.6 13 Norte 27 Nordeste 0 1010 -0.6 68
2019-08-15 16:00:00 28.4 19 Nordeste 26 Norte 0 1010.2 -0.7 69
2019-08-15 15:00:00 28 17 Nordeste 26 Norte 0 1010.4 -0.9 72
2019-08-15 14:00:00 28.2 15 Nordeste 22 Nordeste 0 1010.6 -0.5 68
2019-08-15 13:00:00 27.8 12 Este 21 Nordeste 0 1010.9 -0.1 69
2019-08-15 12:00:00 26.9 13 Nordeste 20 Nordeste 0 1011.3 0.5 72
2019-08-15 11:00:00 27.1 12 Este 22 Nordeste 0 1011.1 0.6 71
2019-08-15 10:00:00 26.4 10 Este 19 Nordeste 0 1011 0.8 74
2019-08-15 09:00:00 25.1 12 Este 17 Nordeste 0 1010.8 0.5 82
2019-08-15 08:00:00 24.1 6 Este 8 Este 0 1010.5 0.1 86
2019-08-15 07:00:00 24.1 5 Este 11 Este 0 1010.2 -0.4 85
2019-08-15 06:00:00 24.5 9 Este 12 Este 0 1010.3 -0.4 86
2019-08-15 05:00:00 24.4 6 Este 9 Este 0 1010.4 -0.8 86
2019-08-15 04:00:00 23.8 2 Sudoeste 5 Sudoeste 0 1010.6 -0.9 85
2019-08-15 03:00:00 24 5 Sudoeste 8 Oeste 0 1010.7 -0.7 84
2019-08-15 02:00:00 24.5 3 Este 7 Este 0 1011.2 -0.2 84
2019-08-15 01:00:00 24.9 6 Nordeste 9 Nordeste 0 1011.5 0.6 84
2019-08-15 00:00:00 25.1 4 Este 10 Este 0 1011.4 0.9 82
2019-08-14 23:00:00 25.2 8 Sudeste 14 Sudeste 0 1011.4 1.3 82
2019-08-14 22:00:00 25.4 9 Sudeste 15 Este 0 1010.9 0.8 81
2019-08-14 21:00:00 25.7 10 Este 17 Este 0 1010.5 0.2 80
2019-08-14 20:00:00 26.3 12 Este 17 Este 0 1010.1 -0.6 77
2019-08-14 19:00:00 27.1 12 Este 21 Este 0 1010.1 -1.1 74
2019-08-14 18:00:00 27.6 13 Este 24 Nordeste 0 1010.3 -1.3 72
2019-08-14 17:00:00 28.1 14 Este 28 Nordeste 0 1010.7 -1.3 68
2019-08-14 16:00:00 28.2 15 Este 30 Nordeste 0 1011.2 -1.3 69
2019-08-14 15:00:00 28.4 20 Este 29 Este 0 1011.6 -1 69
2019-08-14 14:00:00 28.4 19 Este 30 Este 0 1012 -0.4 71
2019-08-14 13:00:00 28 19 Este 27 Este 0 1012.5 0.1 73
2019-08-14 12:00:00 27.4 19 Este 28 Este 0 1012.6 0.5 75
2019-08-14 11:00:00 27.2 18 Este 26 Este 0 1012.4 0.6 75
2019-08-14 10:00:00 26.6 18 Este 25 Este 0 1012.4 0.9 79
2019-08-14 09:00:00 25.8 17 Este 23 Este 0 1012.1 0.6 85
2019-08-14 08:00:00 24.8 15 Este 24 Este 0 1011.8 0.3 89
2019-08-14 07:00:00 24.9 15 Este 21 Este 0 1011.5 -0.1 88
2019-08-14 06:00:00 24.9 13 Este 19 Nordeste 0 1011.5 -0.2 89
2019-08-14 05:00:00 24.9 10 Este 17 Este 0 1011.5 -0.3 90
2019-08-14 04:00:00 25.1 11 Este 17 Este 0 1011.6 0 89
2019-08-14 03:00:00 25.1 9 Este 15 Este 0 1011.7 0.2 88
2019-08-14 02:00:00 25.2 11 Este 17 Nordeste 0 1011.8 0.5 87
2019-08-14 01:00:00 25.2 11 Este 15 Este 0 1011.6 1 88
2019-08-14 00:00:00 25.4 9 Este 23 Nordeste 0 1011.5 1.7 88
2019-08-13 23:00:00 25.7 14 Nordeste 22 Nordeste 0 1011.3 1.8 85
2019-08-13 22:00:00 25.9 10 Este 18 Este 0 1010.6 1.2 86
2019-08-13 21:00:00 26.3 10 Este 19 Nordeste 0 1009.8 0.4 82
2019-08-13 20:00:00 27.3 10 Este 15 Nordeste 0 1009.5 -0.1 72
2019-08-13 19:00:00 28.2 11 Nordeste 21 Nordeste 0 1009.4 -0.6 69
2019-08-13 18:00:00 28.5 12 Nordeste 22 Nordeste 0 1009.4 -0.7 68
2019-08-13 17:00:00 28.7 14 Norte 26 Norte 0 1009.6 -0.4 67
2019-08-13 16:00:00 29 19 Nordeste 25 Norte 0 1010 0 66
2019-08-13 15:00:00 29.1 17 Nordeste 27 Nordeste 0 1010.1 -0.1 65
2019-08-13 14:00:00 28.9 12 Nordeste 23 Nordeste 0 1010 0.2 63
2019-08-13 13:00:00 28.9 11 Nordeste 19 Este 0 1010 0.3 59
2019-08-13 12:00:00 28.9 7 Este 14 Este 0 1010.2 0.8 54
2019-08-13 11:00:00 28.5 6 Este 12 Este 0 1009.8 0.7 46
2019-08-13 10:00:00 26.3 4 Este 10 Nordeste 0 1009.7 1.2 36
2019-08-13 09:00:00 23.2 5 Noroeste 15 Norte 0 1009.4 1.1 39
2019-08-13 08:00:00 21 4 Noroeste 8 Norte 0 1009.1 0.5 45
2019-08-13 07:00:00 21.6 5 Oeste 10 Noroeste 0 1008.5 -0.5 44
2019-08-13 06:00:00 20.8 6 Noroeste 8 Noroeste 0 1008.3 -0.9 41
2019-08-13 05:00:00 21.2 4 Noroeste 9 Sudoeste 0 1008.6 -0.8 39
2019-08-13 04:00:00 21.5 6 Noroeste 10 Noroeste 0 1009 -0.3 40
2019-08-13 03:00:00 22.5 3 Noroeste 12 Norte 0 1009.2 0 44
2019-08-13 02:00:00 22.9 6 Sudoeste 10 Norte 0 1009.4 0.1 49
2019-08-13 01:00:00 23.2 3 Este 7 Oeste 0 1009.3 0.7 43
2019-08-13 00:00:00 24.7 4 Sudeste 11 Sur 0 1009.2 1.6 51
2019-08-12 23:00:00 24.9 2 Sur 9 Noroeste 0 1009.3 2.4 35
2019-08-12 22:00:00 25.8 6 Noroeste 16 Norte 0 1008.6 2 36
2019-08-12 21:00:00 26.5 5 Oeste 21 Noroeste 0 1007.6 1.1 34
2019-08-12 20:00:00 27.8 11 Noroeste 22 Oeste 0 1006.9 -0.1 27
2019-08-12 19:00:00 28.8 8 Oeste 35 Sudoeste 0 1006.6 -0.8 28
2019-08-12 18:00:00 30.1 15 Oeste 32 Oeste 0 1006.5 -1.5 26
2019-08-12 17:00:00 31.7 14 Oeste 34 Oeste 0 1007 -1.1 19
2019-08-12 16:00:00 31.1 20 Oeste 39 Oeste 0 1007.4 -1 21
2019-08-12 15:00:00 30.4 12 Oeste 40 Oeste 0 1008 -0.4 23
2019-08-12 14:00:00 32.1 12 Oeste 31 Oeste 0 1008.1 -0.3 20
2019-08-12 13:00:00 31.5 21 Oeste 37 Oeste 0 1008.4 0.5 20
2019-08-12 12:00:00 30.1 19 Oeste 33 Oeste 0 1008.4 0.8 25
2019-08-12 11:00:00 28.4 10 Oeste 36 Oeste 0 1008.4 1.3 32
2019-08-12 10:00:00 27.2 16 Oeste 38 Oeste 0 1007.9 1.1 36
2019-08-12 09:00:00 25.7 22 Oeste 35 Oeste 0 1007.6 0.8 39
2019-08-12 08:00:00 25.1 22 Oeste 34 Sudoeste 0 1007.1 0.2 37
2019-08-12 07:00:00 26.3 15 Oeste 27 Oeste 0 1006.8 -0.5 29
2019-08-12 06:00:00 26.7 18 Oeste 32 Oeste 0 1006.8 -1 27
2019-08-12 05:00:00 26.7 17 Oeste 35 Oeste 0 1006.9 -1.1 28
2019-08-12 04:00:00 26.3 19 Oeste 39 Oeste 0 1007.3 -1.2 31
2019-08-12 03:00:00 26.9 24 Oeste 45 Oeste 0 1007.8 -0.8 30
2019-08-12 02:00:00 27 24 Oeste 47 Oeste 0 1008 -0.7 33
2019-08-12 01:00:00 27.7 26 Oeste 44 Sudoeste 0 1008.5 0.3 32
2019-08-12 00:00:00 28.3 23 Oeste 40 Oeste 0 1008.6 0.7 29
2019-08-11 23:00:00 29 22 Oeste 37 Sudoeste 0 1008.7 1 26
2019-08-11 22:00:00 29.5 21 Oeste 39 Oeste 0 1008.2 1.4 24
2019-08-11 21:00:00 30.1 20 Oeste 39 Oeste 0 1007.9 1.2 22
2019-08-11 20:00:00 30.3 21 Oeste 53 Noroeste 0 1007.7 0.7 23
2019-08-11 19:00:00 30.8 27 Oeste 51 Oeste 0 1006.8 -1.2 22
2019-08-11 18:00:00 30.9 27 Oeste 50 Oeste 0 1006.7 -2.1 21
2019-08-11 17:00:00 31.7 22 Oeste 53 Oeste 0 1007 -2.5 21
2019-08-11 16:00:00 32.1 15 Oeste 40 Oeste 0 1008 -1.9 21
2019-08-11 15:00:00 32.3 17 Oeste 39 Oeste 0 1008.8 -1 24
2019-08-11 14:00:00 32.2 13 Oeste 45 Oeste 0 1009.5 0.4 26
2019-08-11 13:00:00 31.5 22 Oeste 40 Sudoeste 0 1009.9 1 28
2019-08-11 12:00:00 31.5 23 Oeste 43 Oeste 0 1009.8 1.1 26
2019-08-11 11:00:00 31.8 16 Oeste 44 Oeste 0 1009.1 0.6 24
2019-08-11 10:00:00 29.8 21 Oeste 42 Oeste 0 1008.9 0.9 28
2019-08-11 09:00:00 28.2 22 Oeste 41 Sudoeste 0 1008.7 0.5 31
2019-08-11 08:00:00 26.9 24 Oeste 42 Oeste 0 1008.5 0.4 35
2019-08-11 07:00:00 26.5 19 Oeste 31 Oeste 0 1008 -0.1 39
2019-08-11 06:00:00 27.2 17 Sudoeste 36 Sudoeste 0 1008.2 0.2 37
2019-08-11 05:00:00 26.7 19 Oeste 39 Sudoeste 0 1008.1 -0.9 52
2019-08-11 04:00:00 27.6 16 Sudoeste 33 Oeste 0 1008.1 -1.1 51
2019-08-11 03:00:00 28 12 Oeste 36 Oeste 0 1008 -1.7 50
2019-08-11 02:00:00 28.4 21 Oeste 37 Sudoeste 0 1009 0.4 50
2019-08-11 01:00:00 29.1 7 Oeste 18 Sudoeste 0 1009.2 -0.3 44
2019-08-11 00:00:00 28.2 8 Sudeste 13 Sudeste 0 1009.7 1.5 64
2019-08-10 23:00:00 29 4 Noroeste 13 Norte 0 1008.6 0.7 49
2019-08-10 22:00:00 29 5 Este 21 Oeste 0 1009.5 1.8 64
2019-08-10 21:00:00 30 10 Oeste 25 Oeste 0 1008.2 0 48
2019-08-10 20:00:00 31 9 Oeste 34 Oeste 0 1007.9 -0.8 45
2019-08-10 19:00:00 31.4 15 Oeste 35 Oeste 0 1007.7 -1.5 44
2019-08-10 18:00:00 31.5 13 Oeste 39 Oeste 0 1008.2 -1.7 45
2019-08-10 17:00:00 31.8 18 Oeste 35 Oeste 0 1008.7 -1.7 45
2019-08-10 16:00:00 32.4 15 Oeste 33 Oeste 0 1009.2 -1.5 43
2019-08-10 15:00:00 32.5 13 Oeste 34 Oeste 0 1009.9 -0.9 43
2019-08-10 14:00:00 31.7 12 Oeste 31 Oeste 0 1010.4 -0.4 45
2019-08-10 13:00:00 31.6 12 Oeste 31 Oeste 0 1010.7 0.1 46
2019-08-10 12:00:00 31.4 8 Oeste 32 Oeste 0 1010.8 0.6 46
2019-08-10 11:00:00 29.5 18 Oeste 37 Oeste 0 1010.8 0.8 51
2019-08-10 10:00:00 29.1 22 Oeste 38 Oeste 0 1010.6 0.9 50
2019-08-10 09:00:00 28.5 15 Oeste 32 Oeste 0 1010.2 0.4 52
2019-08-10 08:00:00 27.3 18 Oeste 32 Oeste 0 1010 0.3 51
2019-08-10 07:00:00 26.5 14 Oeste 32 Oeste 0 1009.7 0.1 49
2019-08-10 06:00:00 26 16 Oeste 46 Sudoeste 0 1009.8 -0.3 55
2019-08-10 05:00:00 25.7 23 Oeste 50 Oeste 0 1009.7 0.3 59
2019-08-10 04:00:00 26.3 31 Oeste 50 Oeste 0 1009.6 -0.2 57
2019-08-10 03:00:00 27.6 23 Oeste 39 Oeste 0 1010.1 0.1 45
2019-08-10 02:00:00 28.4 18 Oeste 32 Oeste 0 1009.4 -0.1 39
2019-08-10 01:00:00 28.8 15 Oeste 32 Oeste 0 1009.8 0.9 36
2019-08-10 00:00:00 29.7 15 Oeste 27 Oeste 0 1010 1.9 31
2019-08-09 23:00:00 29.7 17 Sudoeste 30 Sudoeste 0 1009.5 1.6 33
2019-08-09 22:00:00 29.8 22 Oeste 39 Sudoeste 0 1008.9 1.2 30
2019-08-09 21:00:00 29.9 22 Oeste 39 Oeste 0 1008.1 0.2 30
2019-08-09 20:00:00 30.5 23 Oeste 43 Oeste 0 1007.9 -0.4 30
2019-08-09 19:00:00 31 22 Oeste 43 Oeste 0 1007.7 -1.3 34
2019-08-09 18:00:00 31.6 19 Oeste 42 Sudoeste 0 1007.9 -1.6 33
2019-08-09 17:00:00 32 18 Oeste 37 Oeste 0 1008.3 -1.3 35
2019-08-09 16:00:00 31.9 16 Oeste 40 Oeste 0 1009 -0.8 39
2019-08-09 15:00:00 32.3 13 Oeste 31 Oeste 0 1009.5 -0.5 38
2019-08-09 14:00:00 32.3 10 Oeste 34 Oeste 0 1009.6 0 33
2019-08-09 13:00:00 33.5 10 Oeste 34 Oeste 0 1009.8 0.2 26
2019-08-09 12:00:00 32.5 18 Oeste 33 Oeste 0 1010 0.7 28
2019-08-09 11:00:00 31.8 12 Oeste 33 Sudoeste 0 1009.6 0.5 28
2019-08-09 10:00:00 29.7 17 Oeste 36 Oeste 0 1009.6 1 32
2019-08-09 09:00:00 27.6 20 Oeste 34 Sudoeste 0 1009.3 0.7 35
2019-08-09 08:00:00 26.2 19 Oeste 33 Oeste 0 1009.1 0.7 43
2019-08-09 07:00:00 26.4 18 Oeste 32 Oeste 0 1008.6 0.5 49
2019-08-09 06:00:00 26.6 21 Oeste 37 Oeste 0 1008.6 0.6 47
2019-08-09 05:00:00 27.6 17 Oeste 30 Oeste 0 1008.4 0.5 38
2019-08-09 04:00:00 28.9 8 Oeste 18 Sudoeste 0 1008.1 0.3 22
2019-08-09 03:00:00 29.4 5 Noroeste 14 Oeste 0 1008 0.1 19
2019-08-09 02:00:00 27.3 4 Oeste 9 Oeste 0 1007.9 -0.1 26
2019-08-09 01:00:00 26.4 3 Oeste 12 Noroeste 0 1007.8 0.6 58
2019-08-09 00:00:00 26.5 2 Noroeste 12 Sudeste 0 1007.9 1 70
2019-08-08 23:00:00 26.7 6 Sudeste 10 Sudeste 0 1008 1.6 71
2019-08-08 22:00:00 27.4 5 Este 9 Sudeste 0 1007.2 1 65
2019-08-08 21:00:00 27.8 5 Sudeste 17 Sudeste 0 1006.9 0.7 64
2019-08-08 20:00:00 29.7 9 Sudeste 20 Sudeste 0 1006.4 -0.1 58
2019-08-08 19:00:00 33.9 6 Noroeste 18 Oeste 0 1006.2 -0.8 22
2019-08-08 18:00:00 34.4 7 Oeste 22 Noroeste 0 1006.2 -1 22
2019-08-08 17:00:00 34.2 8 Oeste 25 Oeste 0 1006.5 -1.2 25
2019-08-08 16:00:00 34 8 Oeste 28 Oeste 0 1007 -0.9 26
2019-08-08 15:00:00 34.2 10 Oeste 23 Oeste 0 1007.2 -0.7 27
2019-08-08 14:00:00 34.1 10 Oeste 27 Noroeste 0 1007.7 0.1 26
2019-08-08 13:00:00 33.5 10 Noroeste 27 Noroeste 0 1007.9 0.6 28
2019-08-08 12:00:00 32.4 9 Noroeste 23 Oeste 0 1007.9 1 30
2019-08-08 11:00:00 32.1 13 Oeste 28 Oeste 0 1007.6 0.9 29
2019-08-08 10:00:00 31 11 Oeste 30 Oeste 0 1007.3 1 30
2019-08-08 09:00:00 29.4 19 Oeste 34 Sudoeste 0 1006.9 0.6 34
2019-08-08 08:00:00 28.1 19 Oeste 42 Sudoeste 0 1006.7 0.3 37
2019-08-08 07:00:00 28.2 21 Oeste 44 Sudoeste 0 1006.3 -0.2 37
2019-08-08 06:00:00 28.2 21 Sudoeste 42 Oeste 0 1006.3 -0.3 33
2019-08-08 05:00:00 28.8 22 Oeste 37 Oeste 0 1006.4 -0.2 28
2019-08-08 04:00:00 29.2 20 Sudoeste 33 Sudoeste 0 1006.5 0.1 27
2019-08-08 03:00:00 28.7 20 Oeste 35 Oeste 0 1006.6 0.1 33
2019-08-08 02:00:00 29.3 23 Oeste 38 Oeste 0 1006.6 0.6 30
2019-08-08 01:00:00 30.2 17 Oeste 32 Oeste 0 1006.4 0.2 28
2019-08-08 00:00:00 31 5 Noroeste 23 Oeste 0 1006.5 0.9 26
2019-08-07 23:00:00 31.2 9 Oeste 21 Oeste 0 1006 0.9 24
2019-08-07 22:00:00 31.1 9 Sudoeste 31 Sudoeste 0 1006.2 0.9 25
2019-08-07 21:00:00 31.2 21 Oeste 36 Oeste 0 1005.6 0.7 25
2019-08-07 20:00:00 32.1 18 Oeste 30 Oeste 0 1005.1 0.1 23
2019-08-07 19:00:00 33.5 16 Oeste 39 Oeste 0 1005.3 -0.1 18
2019-08-07 18:00:00 33.8 18 Oeste 40 Oeste 0 1004.9 -1.1 18
2019-08-07 17:00:00 34.3 15 Oeste 37 Oeste 0 1005 -1.5 17
2019-08-07 16:00:00 33.5 13 Oeste 38 Oeste 0 1005.4 -1.3 20
2019-08-07 15:00:00 33.4 20 Oeste 34 Oeste 0 1006 -0.7 19
2019-08-07 14:00:00 32.5 17 Oeste 37 Oeste 0 1006.5 -0.1 21
2019-08-07 13:00:00 31.2 14 Oeste 34 Oeste 0 1006.7 0.4 21
2019-08-07 12:00:00 31.9 19 Oeste 35 Oeste 0 1006.7 0.9 19
2019-08-07 11:00:00 31.7 10 Oeste 29 Oeste 0 1006.6 1.4 22
2019-08-07 10:00:00 29.9 6 Oeste 26 Oeste 0 1006.3 1 33
2019-08-07 09:00:00 30.1 8 Oeste 23 Oeste 0 1005.8 0.9 20
2019-08-07 08:00:00 30.2 10 Sudoeste 33 Oeste 0 1005.2 0.4 15
2019-08-07 07:00:00 29.9 14 Oeste 32 Sudoeste 0 1005.3 0.2 16
2019-08-07 06:00:00 29.6 20 Sudoeste 37 Oeste 0 1004.9 -0.1 21
2019-08-07 05:00:00 29.5 19 Oeste 36 Oeste 0 1004.8 -0.2 26
2019-08-07 04:00:00 28.1 16 Oeste 28 Sudoeste 0 1005.1 -0.9 26
2019-08-07 03:00:00 29 11 Noroeste 29 Oeste 0 1005 -0.5 24
2019-08-07 02:00:00 27.7 12 Noroeste 18 Noroeste 0 1005 -0.5 48
2019-08-07 01:00:00 27.9 4 Este 19 Sur 0 1006 1.1 49
2019-08-07 00:00:00 28 6 Noroeste 12 Noroeste 0 1005.5 0.8 59
2019-08-06 23:00:00 28.5 6 Sudeste 10 Este 0 1005.5 0.8 61
2019-08-06 22:00:00 29.1 4 Oeste 11 Noroeste 0 1004.9 -0.1 43
2019-08-06 21:00:00 29.4 8 Sudeste 35 Sudeste 0 1004.7 0.2 41
2019-08-06 20:00:00 31.4 13 Sudoeste 26 Oeste 0 1004.7 -0.2 28
2019-08-06 19:00:00 30.6 6 Oeste 46 Oeste 0 1005 -0.5 30
2019-08-06 18:00:00 32.7 8 Oeste 28 Oeste 0 1004.5 -1.4 26
2019-08-06 17:00:00 32.6 9 Oeste 30 Oeste 0 1004.9 -1.2 28
2019-08-06 16:00:00 31.9 13 Noroeste 26 Norte 0 1005.5 -0.9 36
2019-08-06 15:00:00 31.7 17 Norte 25 Nordeste 0 1005.9 -1.4 42
2019-08-06 14:00:00 30.4 12 Nordeste 25 Este 0 1006.1 -1 55
2019-08-06 13:00:00 29.2 12 Nordeste 24 Este 0 1006.4 -0.9 65
2019-08-06 12:00:00 30.7 11 Este 18 Este 0 1007.3 -0.3 51
2019-08-06 11:00:00 29.2 5 Nordeste 13 Este 0 1007.1 0.3 46
2019-08-06 10:00:00 28.5 8 Este 13 Noroeste 0 1007.3 0.2 42
2019-08-06 09:00:00 26.5 8 Norte 11 Norte 0 1007.6 0.4 52
2019-08-06 08:00:00 25.5 5 Noroeste 14 Norte 0 1006.8 -0.8 68
2019-08-06 07:00:00 25 5 Este 9 Este 0 1007.1 -0.3 68
2019-08-06 06:00:00 25.1 5 Noroeste 10 Norte 0 1007.2 0.2 66
2019-08-06 05:00:00 25.5 4 Noroeste 6 Sudeste 0 1007.6 0 75
2019-08-06 04:00:00 25.7 3 Sur 7 Noroeste 0 1007.4 -0.2 77
2019-08-06 03:00:00 25.9 8 Norte 10 Noroeste 0 1007 -0.8 73
2019-08-06 02:00:00 26.1 2 Sudeste 6 Noroeste 0 1007.6 0.5 78
2019-08-06 01:00:00 26.3 5 Este 9 Este 0 1007.6 0.9 81
2019-08-06 00:00:00 26.6 5 Sudeste 8 Sudeste 0 1007.8 1.1 78
2019-08-05 23:00:00 26.8 5 Nordeste 8 Este 0 1007.1 0.6 74
2019-08-05 22:00:00 26.7 5 Este 12 Sudeste 0 1006.7 0.7 71
2019-08-05 21:00:00 27.1 9 Este 14 Este 0 1006.7 0.6 71
2019-08-05 20:00:00 27.8 7 Este 17 Nordeste 0 1006.5 0.5 67
2019-08-05 19:00:00 28.4 10 Este 19 Nordeste 0 1006 -0.4 62
2019-08-05 18:00:00 28.9 14 Norte 22 Norte 0 1006.1 -0.5 63
2019-08-05 17:00:00 29.9 12 Nordeste 19 Nordeste 0 1006 -1.2 60
2019-08-05 16:00:00 29.3 12 Nordeste 19 Este 0 1006.4 -1.3 68
2019-08-05 15:00:00 29.2 10 Nordeste 18 Nordeste 0 1006.6 -1.2 68
2019-08-05 14:00:00 28.8 12 Este 19 Este 0 1007.2 -0.7 74
2019-08-05 13:00:00 28.9 12 Este 19 Este 0 1007.7 -0.2 72
2019-08-05 12:00:00 28.1 12 Nordeste 17 Este 0 1007.8 -0.4 77
2019-08-05 11:00:00 27.7 8 Este 12 Este 0 1007.9 0.2 77
2019-08-05 10:00:00 27.4 5 Este 10 Este 0 1007.9 0.6 80
2019-08-05 09:00:00 26.3 6 Este 10 Este 0 1008.2 0.8 85
2019-08-05 08:00:00 24.8 5 Sudoeste 8 Noroeste 0 1007.7 0.4 67
2019-08-05 07:00:00 25.1 3 Noroeste 7 Noroeste 0 1007.3 -0.4 72
2019-08-05 06:00:00 25.1 3 Noroeste 12 Noroeste 0 1007.4 0 86
2019-08-05 05:00:00 25.2 8 Sudeste 18 Sur 0 1007.3 -0.7 86
2019-08-05 04:00:00 25 6 Sudeste 12 Sudeste 0 1007.7 -0.1 88
2019-08-05 03:00:00 25.4 6 Nordeste 9 Sudeste 0 1007.4 -0.4 87
2019-08-05 02:00:00 25.4 7 Sudeste 10 Sudeste 0 1008 0 85
2019-08-05 01:00:00 25.2 2 Oeste 8 Norte 0 1007.8 -0.3 86
2019-08-05 00:00:00 25.4 5 Norte 10 Este 0 1007.8 -0.1 85
2019-08-04 23:00:00 25.5 6 Este 18 Sudeste 0 1008 0.8 85
2019-08-04 22:00:00 25.5 8 Este 15 Nordeste 0 1008.1 1.5 84
2019-08-04 21:00:00 25.8 9 Sudeste 16 Este 0 1007.9 1.4 81
2019-08-04 20:00:00 26.1 10 Este 17 Este 0 1007.2 0.3 78
2019-08-04 19:00:00 27.7 11 Nordeste 20 Nordeste 0 1006.6 -0.6 70
2019-08-04 18:00:00 28 15 Norte 22 Norte 0 1006.5 -1 68
2019-08-04 17:00:00 28.3 15 Nordeste 21 Norte 0 1006.9 -1.1 67
2019-08-04 16:00:00 28.9 11 Nordeste 25 Nordeste 0 1007.2 -1.4 62
2019-08-04 15:00:00 28.8 12 Nordeste 20 Este 0 1007.5 -1.4 62
2019-08-04 14:00:00 28.8 14 Nordeste 19 Nordeste 0 1008 -0.4 64
2019-08-04 13:00:00 28.4 13 Este 19 Este 0 1008.6 0.3 68
2019-08-04 12:00:00 28.4 11 Este 18 Nordeste 0 1008.9 0.5 67
2019-08-04 11:00:00 28.4 7 Noroeste 14 Norte 0 1008.4 0.2 60
2019-08-04 10:00:00 26.2 6 Noroeste 14 Oeste 0 1008.3 0.4 75
2019-08-04 09:00:00 25 6 Oeste 14 Sudoeste 0 1008.4 0.5 80
2019-08-04 08:00:00 23.7 3 Oeste 10 Oeste 0 1008.2 0.6 85
2019-08-04 07:00:00 23.8 7 Sudoeste 11 Oeste 0 1007.9 -0.4 85
2019-08-04 06:00:00 24 3 Noroeste 9 Sudoeste 0 1007.9 0.3 86
2019-08-04 05:00:00 23.8 5 Noroeste 13 Noroeste 0 1007.6 -1.1 89
2019-08-04 04:00:00 24.1 5 Noroeste 12 Noroeste 0 1008.3 0 88
2019-08-04 03:00:00 24.4 4 Noroeste 15 Noroeste 0 1007.6 -0.4 87
2019-08-04 02:00:00 24.5 5 Norte 11 Noroeste 0 1008.7 0.5 86
2019-08-04 01:00:00 24.5 4 Oeste 15 Noroeste 0 1008.3 0.7 86
2019-08-04 00:00:00 24.9 5 Noroeste 10 Norte 0 1008 1.8 86
2019-08-03 23:00:00 25.2 5 Nordeste 14 Este 0 1008.2 1.2 85
2019-08-03 22:00:00 25.3 10 Este 17 Nordeste 0 1007.6 0.9 84
2019-08-03 21:00:00 26 12 Norte 15 Norte 0 1006.2 -0.7 80
2019-08-03 20:00:00 26.6 8 Este 18 Nordeste 0 1007 -0.1 76
2019-08-03 19:00:00 27.3 10 Nordeste 18 Nordeste 0 1006.7 -0.9 73
2019-08-03 18:00:00 27.7 13 Nordeste 21 Nordeste 0 1006.9 -1 69
2019-08-03 17:00:00 27.9 16 Nordeste 22 Nordeste 0 1007.1 -1.3 68
2019-08-03 16:00:00 28.2 14 Nordeste 22 Este 0 1007.6 -1.1 70
2019-08-03 15:00:00 28 13 Nordeste 22 Nordeste 0 1007.9 -0.6 67
2019-08-03 14:00:00 27.9 14 Este 22 Nordeste 0 1008.4 0 70
2019-08-03 13:00:00 27.8 12 Este 19 Este 0 1008.7 0.5 70
2019-08-03 12:00:00 27.3 13 Este 19 Este 0 1008.5 0.5 70
2019-08-03 11:00:00 26.8 10 Nordeste 15 Este 0 1008.4 0.6 75
2019-08-03 10:00:00 25.9 8 Nordeste 15 Este 0 1008.2 0.7 78
2019-08-03 09:00:00 25.4 11 Este 15 Este 0 1008 0.5 85
2019-08-03 08:00:00 24.6 6 Sudeste 15 Sudeste 0 1007.8 0.6 88
2019-08-03 07:00:00 24.4 10 Este 19 Este 0 1007.5 0.1 89
2019-08-03 06:00:00 24.6 11 Este 21 Este 0 1007.5 -0.2 88
2019-08-03 05:00:00 24.6 6 Este 13 Este 0 1007.2 -0.6 89
2019-08-03 04:00:00 24.7 4 Sudeste 14 Este 0 1007.4 -0.3 88
2019-08-03 03:00:00 24.9 8 Este 15 Este 0 1007.7 -0.3 87
2019-08-03 02:00:00 24.9 8 Este 11 Este 0 1007.8 0 88
2019-08-03 01:00:00 25.2 4 Noroeste 9 Noroeste 0 1007.7 0 79
2019-08-03 00:00:00 25.1 2 Sudoeste 5 Oeste 0 1008 0.7 80
2019-08-02 23:00:00 25.1 4 Sudeste 12 Sudeste 0 1007.8 0.8 81
2019-08-02 22:00:00 25.3 7 Sudeste 14 Este 0 1007.7 0.7 82
2019-08-02 21:00:00 25.7 11 Este 15 Este 0 1007.3 0.1 82
2019-08-02 20:00:00 26 9 Este 18 Este 0 1007 -0.3 80
2019-08-02 19:00:00 26.3 11 Este 19 Este 0 1007 -0.5 81
2019-08-02 18:00:00 26.7 14 Nordeste 34 Nordeste 0 1007.2 -0.3 79
2019-08-02 17:00:00 28.3 21 Norte 31 Nordeste 0 1007.3 -0.4 74
2019-08-02 16:00:00 29.3 22 Nordeste 29 Nordeste 0 1007.5 -0.5 72
2019-08-02 15:00:00 29.4 16 Nordeste 23 Nordeste 0 1007.5 -0.8 68
2019-08-02 14:00:00 30.5 9 Este 19 Nordeste 0 1007.7 -0.5 59
2019-08-02 13:00:00 29.6 12 Este 19 Nordeste 0 1008 0.1 60
2019-08-02 12:00:00 28.8 11 Este 18 Nordeste 0 1008.3 0.7 67
2019-08-02 11:00:00 27.7 10 Nordeste 15 Nordeste 0 1008.2 0.7 75
2019-08-02 10:00:00 26.8 5 Este 12 Nordeste 0 1007.9 0.8 79
2019-08-02 09:00:00 24.6 5 Norte 8 Norte 0 1007.6 0.5 83
2019-08-02 08:00:00 23.3 0 Calma 4 Sudoeste 0 1007.5 0.3 86
2019-08-02 07:00:00 23.5 3 Oeste 9 Noroeste 0 1007.1 0 86
2019-08-02 06:00:00 23.5 4 Noroeste 8 Noroeste 0 1007.1 -0.3 87
2019-08-02 05:00:00 23.7 5 Sudoeste 10 Sudoeste 0 1007.2 -0.3 85
2019-08-02 04:00:00 24.1 4 Noroeste 8 Noroeste 0 1007.1 -0.7 86
2019-08-02 03:00:00 24.3 5 Sudoeste 9 Oeste 0 1007.4 -0.1 84
2019-08-02 02:00:00 24.6 3 Noroeste 6 Noroeste 0 1007.5 0.7 86
2019-08-02 01:00:00 25.1 2 Noroeste 14 Sur 0 1007.8 1.4 86
2019-08-02 00:00:00 25.1 7 Noroeste 14 Oeste 0 1007.5 2.1 86
2019-08-01 23:00:00 25.1 3 Norte 13 Este 0 1006.8 0.4 87
2019-08-01 22:00:00 25.2 8 Este 14 Norte 0 1006.4 1.1 86
2019-08-01 21:00:00 25.8 10 Nordeste 17 Nordeste 0 1005.4 -0.1 83
2019-08-01 20:00:00 26.4 9 Sudeste 15 Sudeste 0 1006.4 0.9 80
2019-08-01 19:00:00 26.4 7 Este 17 Nordeste 0 1005.3 -0.7 79
2019-08-01 18:00:00 26.9 11 Este 18 Nordeste 0 1005.5 -1 76
2019-08-01 17:00:00 27.1 10 Nordeste 19 Nordeste 0 1005.5 -1.3 75
2019-08-01 16:00:00 26.5 13 Nordeste 22 Nordeste 0 1006 -0.8 78
2019-08-01 15:00:00 25.9 13 Norte 21 Nordeste 0 1006.5 -0.1 79
2019-08-01 14:00:00 26.2 11 Nordeste 24 Norte 0 1006.8 -0.2 79
2019-08-01 13:00:00 25.3 15 Nordeste 28 Nordeste 0 1006.8 0.2 83
2019-08-01 12:00:00 25 15 Este 23 Nordeste 0 1006.6 0.3 86
2019-08-01 11:00:00 24.7 13 Nordeste 20 Este 0 1007 0.5 88
2019-08-01 10:00:00 24.6 14 Este 25 Este 0 1006.6 0.3 87
2019-08-01 09:00:00 24.4 14 Nordeste 22 Nordeste 0 1006.3 0.8 90
2019-08-01 08:00:00 24.4 9 Este 18 Nordeste 0 1006.5 0.9 90
2019-08-01 07:00:00 24.4 8 Este 26 Este 0 1006.3 0.9 91
2019-08-01 06:00:00 24.4 13 Nordeste 22 Nordeste 0 1005.5 -1.2 91
2019-08-01 05:00:00 24.3 11 Este 27 Nordeste 0.2 1005.6 -0.7 92
2019-08-01 04:00:00 24.8 16 Nordeste 24 Nordeste 0 1005.4 -0.5 88
2019-08-01 03:00:00 24.7 11 Este 29 Nordeste 0 1006.7 0.4 89
2019-08-01 02:00:00 24.9 11 Este 28 Nordeste 0 1006.3 -0.8 88
2019-08-01 01:00:00 24.9 13 Nordeste 19 Nordeste 0 1005.9 0.3 87
2019-08-01 00:00:00 25 15 Este 35 Este 0 1006.3 2.4 86
2019-07-31 23:00:00 25.1 14 Este 34 Este 0 1007.1 1.5 86
2019-07-31 22:00:00 25.2 15 Nordeste 35 Nordeste 0 1005.6 1.5 85
2019-07-31 21:00:00 25.3 19 Nordeste 33 Nordeste 0 1003.9 -1 85
2019-07-31 20:00:00 25.5 13 Nordeste 27 Nordeste 0 1005.6 1 85
2019-07-31 19:00:00 25.9 21 Norte 30 Norte 0 1004.1 -1 84
2019-07-31 18:00:00 26 15 Nordeste 24 Nordeste 0 1004.9 -0.7 83
2019-07-31 17:00:00 26.2 17 Nordeste 30 Nordeste 0 1004.6 -1 81
2019-07-31 16:00:00 26.1 18 Este 32 Nordeste 0 1005.1 -1.3 82
2019-07-31 15:00:00 27.1 22 Este 38 Este 0 1005.6 -1 78
2019-07-31 14:00:00 28 21 Nordeste 35 Este 0 1005.6 -1.1 72
2019-07-31 13:00:00 27.8 21 Nordeste 33 Nordeste 0 1006.4 -0.1 75
2019-07-31 12:00:00 27.2 21 Este 30 Nordeste 0 1006.6 0.3 77
2019-07-31 11:00:00 26.6 18 Este 28 Nordeste 0 1006.7 0.5 79
2019-07-31 10:00:00 25.5 14 Nordeste 23 Nordeste 0 1006.5 0.4 83
2019-07-31 09:00:00 25.1 15 Nordeste 23 Norte 0 1006.3 0.4 84
2019-07-31 08:00:00 24.5 15 Nordeste 24 Nordeste 0 1006.2 0.9 87
2019-07-31 07:00:00 24.3 16 Nordeste 23 Este 0 1006.1 0.3 86
2019-07-31 06:00:00 24.3 9 Este 21 Este 0 1005.9 -0.5 87
2019-07-31 05:00:00 24.3 12 Este 20 Este 0 1005.3 -0.5 86
2019-07-31 04:00:00 24.5 14 Sudeste 38 Este 0 1005.8 0.1 87
2019-07-31 03:00:00 24.6 15 Sudeste 24 Este 0 1006.4 -1 82
2019-07-31 02:00:00 24.6 8 Este 21 Sudeste 0 1005.8 -1 80
2019-07-31 01:00:00 24.6 20 Este 28 Este 0 1005.7 0.3 78
2019-07-31 00:00:00 24.8 5 Este 9 Este 0 1007.4 2.8 73
2019-07-30 23:00:00 25.2 6 Este 8 Este 0 1006.8 2.7 69
2019-07-30 22:00:00 24.8 6 Sur 17 Sudeste 0 1005.4 1.5 73
2019-07-30 21:00:00 25.7 11 Sudeste 17 Sudeste 0 1004.6 0.4 68
2019-07-30 20:00:00 27.7 11 Sudeste 19 Sudeste 0 1004.1 -0.4 60
2019-07-30 19:00:00 31.9 7 Oeste 20 Oeste 0 1003.9 -0.9 30
2019-07-30 18:00:00 33 8 Oeste 23 Oeste 0 1004.2 -1.3 31
2019-07-30 17:00:00 32.6 13 Noroeste 24 Norte 0 1004.5 -1.6 30
2019-07-30 16:00:00 33.6 11 Noroeste 19 Noroeste 0 1004.8 -1.6 29
2019-07-30 15:00:00 33.5 7 Sudoeste 20 Este 0 1005.5 -1 32
2019-07-30 14:00:00 32.9 7 Oeste 17 Oeste 0 1006.1 -0.3 33
2019-07-30 13:00:00 30.7 10 Este 18 Nordeste 0 1006.4 0 40
2019-07-30 12:00:00 29.9 12 Nordeste 19 Este 0 1006.5 0.2 43
2019-07-30 11:00:00 30.8 8 Norte 16 Norte 0 1006.4 0.6 42
2019-07-30 10:00:00 29.9 5 Este 11 Sudeste 0 1006.4 0.6 42
2019-07-30 09:00:00 27 5 Este 8 Sudeste 0 1006.3 0.6 58
2019-07-30 08:00:00 24.5 6 Oeste 8 Oeste 0 1005.8 0.1 51
2019-07-30 07:00:00 23.1 4 Oeste 7 Sudoeste 0 1005.8 0.1 69
2019-07-30 06:00:00 23.1 3 Oeste 5 Nordeste 0 1005.7 -0.2 69
2019-07-30 05:00:00 23.4 4 Norte 8 Norte 0 1005.7 -0.6 65
2019-07-30 04:00:00 23.3 6 Norte 9 Norte 0 1005.7 -0.7 76
2019-07-30 03:00:00 23.5 4 Sudeste 8 Noroeste 0 1005.9 -0.2 79
2019-07-30 02:00:00 23.4 6 Norte 8 Nordeste 0 1006.3 0.4 77
2019-07-30 01:00:00 23.9 2 Sudeste 9 Sudeste 0 1006.4 1.1 80
2019-07-30 00:00:00 24.2 5 Sudeste 12 Sudeste 0 1006.1 1.3 76
2019-07-29 23:00:00 24.4 5 Sudeste 12 Sudeste 0 1005.9 1.3 75
2019-07-29 22:00:00 24.9 8 Sudeste 13 Este 0 1005.3 0.7 75
2019-07-29 21:00:00 26 8 Sudeste 17 Sudeste 0 1004.8 0 68
2019-07-29 20:00:00 28 10 Sudeste 16 Sudeste 0 1004.6 -0.5 58
2019-07-29 19:00:00 29.1 8 Noroeste 23 Oeste 0 1004.6 -0.8 44
2019-07-29 18:00:00 29 8 Oeste 28 Noroeste 0 1004.8 -1 47
2019-07-29 17:00:00 28.4 13 Noroeste 30 Noroeste 0 1005.1 -0.9 51
2019-07-29 16:00:00 28.4 12 Noroeste 26 Noroeste 0 1005.4 -1.2 51
2019-07-29 15:00:00 28.4 14 Noroeste 24 Noroeste 0 1005.8 -0.8 51
2019-07-29 14:00:00 28.2 9 Noroeste 21 Este 0 1006 -0.5 53
2019-07-29 13:00:00 26.5 13 Este 19 Este 0 1006.6 0.2 63
2019-07-29 12:00:00 26 11 Este 18 Este 0 1006.6 0.5 69
2019-07-29 11:00:00 25.9 6 Este 14 Noroeste 0 1006.5 0.7 67
2019-07-29 10:00:00 24.7 8 Noroeste 14 Norte 0 1006.4 1.1 70
2019-07-29 09:00:00 23.3 5 Noroeste 13 Noroeste 0 1006.1 1.2 75
2019-07-29 08:00:00 22.1 3 Oeste 8 Oeste 0 1005.8 0.9 77
2019-07-29 07:00:00 21.4 3 Noroeste 9 Oeste 0 1005.3 0.3 79
2019-07-29 06:00:00 21.6 3 Oeste 8 Norte 0 1004.9 -0.1 81
2019-07-29 05:00:00 21.6 7 Noroeste 10 Noroeste 0 1004.9 -0.4 81
2019-07-29 04:00:00 22 4 Oeste 10 Norte 0 1005 -0.5 77
2019-07-29 03:00:00 22.5 2 Oeste 6 Noroeste 0 1005 -0.4 80
2019-07-29 02:00:00 22.8 5 Sudeste 12 Sudeste 0 1005.3 -0.1 81
2019-07-29 01:00:00 22.8 8 Sudeste 16 Este 0 1005.5 1.1 81
2019-07-29 00:00:00 23 10 Sudeste 20 Sudeste 0 1005.4 1.6 81
2019-07-28 23:00:00 23.7 14 Sudeste 22 Sudeste 0 1005.4 1.9 79
2019-07-28 22:00:00 23.6 9 Noroeste 14 Norte 0 1004.4 1 71
2019-07-28 21:00:00 24.5 8 Noroeste 18 Noroeste 0 1003.8 0.3 67
2019-07-28 20:00:00 25.2 11 Noroeste 19 Noroeste 0 1003.5 -0.3 62
2019-07-28 19:00:00 25.8 8 Oeste 23 Noroeste 0 1003.4 -0.8 61
2019-07-28 18:00:00 26.6 13 Noroeste 26 Noroeste 0 1003.5 -0.9 58
2019-07-28 17:00:00 27 13 Noroeste 25 Noroeste 0 1003.8 -1.1 58
2019-07-28 16:00:00 27.2 14 Noroeste 27 Noroeste 0 1004.2 -1.1 57
2019-07-28 15:00:00 27.9 10 Noroeste 24 Noroeste 0 1004.4 -1.1 55
2019-07-28 14:00:00 27 12 Noroeste 26 Oeste 0 1004.9 -0.7 57
2019-07-28 13:00:00 26.5 13 Noroeste 24 Noroeste 0 1005.3 -0.3 59
2019-07-28 12:00:00 26.2 11 Noroeste 25 Noroeste 0 1005.5 0.4 60
2019-07-28 11:00:00 26 9 Oeste 31 Sudoeste 0 1005.6 0.8 61
2019-07-28 10:00:00 24.5 19 Oeste 36 Sudoeste 0 1005.6 1 67
2019-07-28 09:00:00 23.5 21 Oeste 37 Oeste 0 1005.1 0.7 71
2019-07-28 08:00:00 22.7 17 Oeste 33 Oeste 0 1004.8 0.3 73
2019-07-28 07:00:00 22.5 19 Oeste 33 Sudoeste 0 1004.6 -0.5 73
2019-07-28 06:00:00 22.4 17 Oeste 35 Oeste 0 1004.4 -0.9 73
2019-07-28 05:00:00 22.5 17 Oeste 36 Oeste 0 1004.5 -1.2 72
2019-07-28 04:00:00 22.6 13 Oeste 33 Oeste 0 1005.1 -0.7 72
2019-07-28 03:00:00 22.7 14 Oeste 44 Oeste 0 1005.3 -0.4 71
2019-07-28 02:00:00 22.6 22 Oeste 39 Oeste 0 1005.7 0.4 73
2019-07-28 01:00:00 22.5 18 Oeste 44 Oeste 0 1005.8 1.1 76
2019-07-28 00:00:00 23.1 20 Oeste 53 Oeste 0 1005.7 1.3 72
2019-07-27 23:00:00 24.1 23 Oeste 50 Oeste 0 1005.3 1.4 63
2019-07-26 12:00:00 30.5 17 Oeste 35 Oeste 0 1007.8 0 31
2019-07-26 11:00:00 28.5 21 Oeste 35 Oeste 0 1007.8 0.2 49
2019-07-26 10:00:00 27.5 19 Oeste 33 Oeste 0 1007.9 0.6 44
2019-07-26 09:00:00 25.2 16 Oeste 30 Oeste 0 1007.8 0.9 72
2019-07-26 08:00:00 24.2 15 Oeste 30 Oeste 0 1007.6 0.5 85
2019-07-26 07:00:00 24.6 13 Oeste 25 Oeste 0 1007.3 0.2 77
2019-07-26 06:00:00 25.2 9 Oeste 16 Oeste 0 1006.9 -0.4 65
2019-07-26 05:00:00 24 4 Oeste 11 Noroeste 0 1007.1 -0.9 70
2019-07-26 04:00:00 24.2 5 Noroeste 10 Sudeste 0 1007.1 -1.2 89
2019-07-26 03:00:00 24.4 4 Este 14 Noroeste 0 1007.3 -1.1 89
2019-07-26 02:00:00 24.6 5 Noroeste 17 Noroeste 0 1008 -0.1 86
2019-07-26 01:00:00 24.8 8 Oeste 17 Noroeste 0 1008.3 0.8 84
2019-07-26 00:00:00 25.3 7 Oeste 19 Sudoeste 0 1008.4 1.5 83
2019-07-25 23:00:00 25.6 4 Noroeste 9 Oeste 0 1008.1 1.5 81
2019-07-25 22:00:00 25.5 5 Este 9 Este 0 1007.5 1 84
2019-07-25 21:00:00 26 6 Este 12 Este 0 1006.9 0.3 83
2019-07-25 20:00:00 27.1 10 Este 15 Este 0 1006.6 -0.2 77
2019-07-25 19:00:00 28.9 5 Norte 22 Norte 0 1006.5 -0.9 67
2019-07-25 18:00:00 28.6 14 Nordeste 20 Nordeste 0 1006.6 -1 68
2019-07-25 17:00:00 28.4 15 Nordeste 23 Nordeste 0 1006.8 -1.1 67
2019-07-25 16:00:00 28.5 13 Nordeste 20 Nordeste 0 1007.4 -0.7 68
2019-07-25 15:00:00 28.7 13 Nordeste 19 Nordeste 0 1007.6 -0.6 66
2019-07-25 14:00:00 28.4 14 Nordeste 21 Este 0 1007.9 -0.1 66
2019-07-25 13:00:00 28.1 13 Nordeste 20 Este 0 1008.1 0 68
2019-07-25 12:00:00 27.8 10 Este 20 Este 0 1008.2 0.4 68
2019-07-25 11:00:00 27.8 5 Norte 14 Noroeste 0 1008 0.2 66
2019-07-25 10:00:00 26.7 7 Noroeste 15 Noroeste 0 1008.1 0.9 70
2019-07-25 09:00:00 25.2 5 Noroeste 13 Noroeste 0 1007.8 0.7 77
2019-07-25 08:00:00 24.4 5 Oeste 12 Noroeste 0 1007.8 0.8 80
2019-07-25 07:00:00 24.4 4 Noroeste 13 Oeste 0 1007.2 0.2 83
2019-07-25 06:00:00 24.6 5 Oeste 13 Noroeste 0 1007.1 -0.1 83
2019-07-25 05:00:00 24.3 8 Noroeste 17 Noroeste 0 1007 -0.2 86
2019-07-25 04:00:00 24.9 8 Noroeste 11 Noroeste 0 1007 -0.5 83
2019-07-25 03:00:00 25 8 Norte 11 Norte 0 1007.2 -1.1 82
2019-07-25 02:00:00 25.1 8 Nordeste 12 Nordeste 0 1007.2 -0.3 83
2019-07-25 01:00:00 25.1 8 Norte 13 Norte 0 1007.5 0.4 83
2019-07-25 00:00:00 25.3 4 Norte 14 Norte 0 1008.3 1.6 81
2019-07-24 23:00:00 25.5 13 Norte 17 Norte 0 1007.5 1.1 79
2019-07-24 22:00:00 25.8 12 Norte 18 Norte 0 1007.1 0.8 80
2019-07-24 21:00:00 26.1 13 Norte 24 Norte 0 1006.7 -0.1 78
2019-07-24 20:00:00 26.8 16 Norte 22 Norte 0 1006.4 -0.4 76
2019-07-24 19:00:00 27.5 18 Nordeste 23 Norte 0 1006.3 -0.8 72
2019-07-24 18:00:00 27.4 14 Norte 26 Nordeste 0 1006.8 -0.7 75
2019-07-24 17:00:00 27.7 15 Norte 25 Norte 0 1006.8 -1.3 73
2019-07-24 16:00:00 28.2 13 Norte 21 Norte 0 1007.1 -1.2 71
2019-07-24 15:00:00 28 12 Nordeste 21 Nordeste 0 1007.5 -0.8 71
2019-07-24 14:00:00 28.1 13 Nordeste 25 Nordeste 0 1008.1 -0.4 69
2019-07-24 13:00:00 28 13 Norte 24 Norte 0 1008.3 -0.1 69
2019-07-24 12:00:00 27.5 18 Nordeste 24 Nordeste 0 1008.3 0.1 71
2019-07-24 11:00:00 26.9 11 Nordeste 17 Norte 0 1008.5 0.6 75
2019-07-24 10:00:00 25.7 7 Este 13 Este 0 1008.4 0.9 83
2019-07-24 09:00:00 25.4 3 Este 12 Este 0 1008.2 0.7 84
2019-07-24 08:00:00 24.9 5 Este 10 Nordeste 0 1007.9 0.1 86
2019-07-24 07:00:00 24.6 4 Nordeste 10 Norte 0 1007.5 -0.3 85
2019-07-24 06:00:00 24.6 6 Oeste 12 Noroeste 0 1007.5 -0.2 83
2019-07-24 05:00:00 24.2 4 Oeste 10 Noroeste 0 1007.8 -0.5 87
2019-07-24 04:00:00 24.6 3 Noroeste 9 Noroeste 0 1007.8 -0.9 87
2019-07-24 03:00:00 24.6 6 Norte 8 Norte 0 1007.7 -0.5 88
2019-07-24 02:00:00 24.7 6 Este 13 Nordeste 0 1008.3 -0.4 86
2019-07-24 01:00:00 24.7 5 Este 10 Nordeste 0 1008.7 0.8 84
2019-07-24 00:00:00 25 5 Norte 14 Norte 0 1008.2 1.1 84
2019-07-23 23:00:00 25.1 5 Este 12 Norte 0 1008.7 1.1 84
2019-07-23 22:00:00 25.2 8 Nordeste 16 Nordeste 0 1007.9 0.5 83
2019-07-23 21:00:00 25.8 12 Nordeste 17 Nordeste 0 1007.1 -0.6 76
2019-07-23 20:00:00 26.5 4 Este 14 Este 0 1007.6 -0.4 74
2019-07-23 19:00:00 26.3 6 Nordeste 20 Nordeste 0 1007.4 -0.9 77
2019-07-23 18:00:00 27 14 Nordeste 22 Norte 0 1007.7 -0.9 73
2019-07-23 17:00:00 26.9 14 Nordeste 23 Norte 0 1008 -0.8 74
2019-07-23 16:00:00 26.5 13 Nordeste 23 Nordeste 0 1008.3 -0.8 79
2019-07-23 15:00:00 26.9 17 Nordeste 29 Nordeste 0 1008.6 -0.4 77
2019-07-23 14:00:00 27.6 18 Norte 29 Norte 0 1008.8 -0.3 74
2019-07-23 13:00:00 27.5 14 Nordeste 21 Norte 0 1009.1 0 75
2019-07-23 12:00:00 26.4 15 Norte 22 Nordeste 0 1009 0 79
2019-07-23 11:00:00 26.2 12 Norte 18 Nordeste 0 1009.1 0.5 80
2019-07-23 10:00:00 25.4 5 Oeste 15 Noroeste 0 1009.1 0.6 83
2019-07-23 09:00:00 25.5 8 Norte 14 Norte 0 1009 0.6 83
2019-07-23 08:00:00 24.9 8 Este 12 Este 0 1008.6 0 90
2019-07-23 07:00:00 24.9 11 Nordeste 15 Nordeste 0 1008.5 0.1 91
2019-07-23 06:00:00 24.9 13 Nordeste 17 Este 0 1008.4 -0.8 90
2019-07-23 05:00:00 24.9 12 Este 20 Este 0 1008.6 -1.4 90
2019-07-23 04:00:00 24.8 14 Este 19 Este 0 1008.4 -1.6 89
2019-07-23 03:00:00 25.1 13 Este 22 Este 0 1009.2 -0.5 88
2019-07-23 02:00:00 25.1 11 Nordeste 17 Nordeste 0 1010 -0.7 89
2019-07-23 01:00:00 25.1 10 Sudeste 37 Este 0 1010 -0.7 88
2019-07-23 00:00:00 25.2 14 Este 22 Este 0 1009.7 0.3 87
2019-07-22 23:00:00 26 13 Nordeste 27 Sur 0 1010.7 1.4 83
2019-07-22 22:00:00 25.5 8 Sudeste 22 Este 0 1010.7 1.5 85
2019-07-22 21:00:00 25.5 15 Este 26 Este 0 1009.4 0 85
2019-07-22 20:00:00 25.8 17 Este 27 Este 0 1009.3 -0.8 84
2019-07-22 19:00:00 25.9 18 Este 24 Nordeste 0 1009.2 -1.3 83
2019-07-22 18:00:00 26.3 17 Este 25 Este 0 1009.4 -1.5 82
2019-07-22 17:00:00 26.7 16 Este 25 Este 0 1010.1 -1.2 80
2019-07-22 16:00:00 26.8 15 Este 22 Este 0 1010.5 -1.1 81
2019-07-22 15:00:00 27.2 14 Nordeste 26 Nordeste 0 1010.9 -0.8 76
2019-07-22 14:00:00 27.4 17 Nordeste 26 Nordeste 0 1011.3 -0.7 77
2019-07-22 13:00:00 27 17 Este 25 Este 0 1011.6 -0.3 78
2019-07-22 12:00:00 26.6 20 Nordeste 27 Nordeste 0 1011.7 -0.3 81
2019-07-22 11:00:00 26.1 14 Nordeste 19 Este 0 1012 0.3 84
2019-07-22 10:00:00 26.1 13 Este 21 Este 0 1011.9 0.5 83
2019-07-22 09:00:00 25.5 13 Este 21 Este 0 1012 0.9 88
2019-07-22 08:00:00 24.9 13 Este 20 Este 0 1011.7 0.7 91
2019-07-22 07:00:00 24.8 13 Este 21 Nordeste 0 1011.4 0.2 91
2019-07-22 06:00:00 25 15 Este 20 Nordeste 0 1011.1 -0.7 92
2019-07-22 05:00:00 25 8 Este 15 Nordeste 0 1011 -0.8 90
2019-07-22 04:00:00 25.2 8 Nordeste 12 Nordeste 0 1011.2 -0.8 87
2019-07-22 03:00:00 25.3 6 Nordeste 10 Nordeste 0 1011.8 -0.2 88
2019-07-22 02:00:00 25.2 5 Nordeste 17 Norte 0 1011.8 -0.3 87
2019-07-22 01:00:00 25.5 11 Norte 16 Norte 0 1012 1.4 87
2019-07-22 00:00:00 25.6 10 Norte 14 Norte 0 1012 2.1 85
2019-07-21 23:00:00 25.3 6 Oeste 19 Oeste 0 1012.1 1.9 83
2019-07-21 22:00:00 25.6 5 Oeste 13 Oeste 0 1010.6 0.9 82
2019-07-21 21:00:00 26 9 Norte 20 Norte 0 1009.9 -0.1 84
2019-07-21 20:00:00 26.6 17 Nordeste 24 Norte 0 1010.2 0.4 80
2019-07-21 19:00:00 27.2 13 Norte 19 Nordeste 0 1009.7 -0.6 77
2019-07-21 18:00:00 27.1 12 Norte 25 Norte 0 1010 -0.8 77
2019-07-21 17:00:00 28.2 19 Norte 27 Nordeste 0 1009.8 -1.2 72
2019-07-21 16:00:00 28.4 22 Nordeste 30 Nordeste 0 1010.3 -1.1 69
2019-07-21 15:00:00 28.5 20 Norte 30 Norte 0 1010.8 -0.5 66
2019-07-21 14:00:00 28.4 17 Nordeste 23 Nordeste 0 1011 0 62
2019-07-21 13:00:00 28.3 10 Este 19 Nordeste 0 1011.4 0.6 63
2019-07-21 12:00:00 26.9 10 Este 17 Este 0 1011.3 0.6 71
2019-07-21 11:00:00 26 7 Este 15 Nordeste 0 1011 1 76
2019-07-21 10:00:00 25.8 11 Nordeste 18 Nordeste 0 1010.8 1 79
2019-07-21 09:00:00 25.4 10 Este 14 Este 0 1010.7 1.1 83
2019-07-21 08:00:00 24.9 7 Este 12 Nordeste 0 1010 0.2 88
2019-07-21 07:00:00 24.9 5 Nordeste 10 Nordeste 0 1009.8 0.3 88
2019-07-21 06:00:00 24.9 5 Norte 10 Norte 0 1009.6 -0.3 88
2019-07-21 05:00:00 24.9 9 Norte 14 Norte 0 1009.8 -0.1 88
2019-07-21 04:00:00 24.9 7 Norte 12 Norte 0 1009.5 -0.6 88
2019-07-21 03:00:00 25 4 Noroeste 15 Norte 0 1009.9 0.4 87
2019-07-21 02:00:00 25.2 8 Norte 13 Norte 0 1009.9 0.7 83
2019-07-21 01:00:00 25.4 4 Oeste 18 Oeste 0 1010.1 1.7 81
2019-07-21 00:00:00 25.8 4 Oeste 14 Oeste 0 1009.5 2 75